CPX119 Details

Departure: Los Angeles International Airport (KLAX)
Arrival: Ted Stevens Anchorage International Airport (PANC) at N/A
Route: SUMMR1 SCTRR PYE J143 ENI FOT BOXER B453 MDO WITTI4
Notes:


Current Weather Information
KLAX 251153Z 00000KT 10SM FEW009 21/18 A2996 RMK AO2 SLP143 T02060178 10211 20200 57001 VISNO RWY24 $
PANC 251153Z 20003KT 4SM FU OVC080 12/08 A2986 RMK AO2 SLP111 T01170078 10144 20100 51010